sensor_id;sensor_type;location;lat;lon;timestamp;temperature;humidity
37910;DHT22;23741;49.446;8.754;2024-01-15T00:00:58;3.50;63.90
37910;DHT22;23741;49.446;8.754;2024-01-15T00:03:03;3.50;64.40
37910;DHT22;23741;49.446;8.754;2024-01-15T00:05:06;3.50;64.60
37910;DHT22;23741;49.446;8.754;2024-01-15T00:07:11;3.50;64.40
37910;DHT22;23741;49.446;8.754;2024-01-15T00:09:15;3.50;63.90
37910;DHT22;23741;49.446;8.754;2024-01-15T00:11:18;3.50;63.60
37910;DHT22;23741;49.446;8.754;2024-01-15T00:13:22;3.50;63.40
37910;DHT22;23741;49.446;8.754;2024-01-15T00:15:26;3.50;63.50
37910;DHT22;23741;49.446;8.754;2024-01-15T00:17:31;3.50;63.50
37910;DHT22;23741;49.446;8.754;2024-01-15T00:19:34;3.40;63.30
37910;DHT22;23741;49.446;8.754;2024-01-15T00:21:37;3.50;63.50
37910;DHT22;23741;49.446;8.754;2024-01-15T00:23:43;3.40;63.40
37910;DHT22;23741;49.446;8.754;2024-01-15T00:25:50;3.40;63.50
37910;DHT22;23741;49.446;8.754;2024-01-15T00:27:53;3.40;63.50
37910;DHT22;23741;49.446;8.754;2024-01-15T00:29:56;3.40;63.50
37910;DHT22;23741;49.446;8.754;2024-01-15T00:31:57;3.40;63.50
37910;DHT22;23741;49.446;8.754;2024-01-15T00:34:00;3.40;63.50
37910;DHT22;23741;49.446;8.754;2024-01-15T00:36:02;3.30;63.90
37910;DHT22;23741;49.446;8.754;2024-01-15T00:38:05;3.40;64.20
37910;DHT22;23741;49.446;8.754;2024-01-15T00:40:07;3.40;64.20
37910;DHT22;23741;49.446;8.754;2024-01-15T00:42:09;3.40;64.00
37910;DHT22;23741;49.446;8.754;2024-01-15T00:44:11;3.40;64.20
37910;DHT22;23741;49.446;8.754;2024-01-15T00:46:13;3.40;63.90
37910;DHT22;23741;49.446;8.754;2024-01-15T00:48:16;3.40;63.70
37910;DHT22;23741;49.446;8.754;2024-01-15T00:50:18;3.40;64.00
37910;DHT22;23741;49.446;8.754;2024-01-15T00:52:20;3.40;64.20
37910;DHT22;23741;49.446;8.754;2024-01-15T00:54:22;3.40;64.10
37910;DHT22;23741;49.446;8.754;2024-01-15T00:56:25;3.40;64.10
37910;DHT22;23741;49.446;8.754;2024-01-15T00:58:28;3.40;64.10
37910;DHT22;23741;49.446;8.754;2024-01-15T01:00:31;3.40;64.10
37910;DHT22;23741;49.446;8.754;2024-01-15T01:02:34;3.40;64.30
37910;DHT22;23741;49.446;8.754;2024-01-15T01:04:36;3.40;64.50
37910;DHT22;23741;49.446;8.754;2024-01-15T01:06:39;3.40;64.80
37910;DHT22;23741;49.446;8.754;2024-01-15T01:08:41;3.40;64.60
37910;DHT22;23741;49.446;8.754;2024-01-15T01:10:43;3.40;64.40
37910;DHT22;23741;49.446;8.754;2024-01-15T01:12:45;3.40;63.80
37910;DHT22;23741;49.446;8.754;2024-01-15T01:14:47;3.40;63.80
37910;DHT22;23741;49.446;8.754;2024-01-15T01:16:49;3.40;63.40
37910;DHT22;23741;49.446;8.754;2024-01-15T01:18:51;3.40;63.30
37910;DHT22;23741;49.446;8.754;2024-01-15T01:20:53;3.30;63.40
37910;DHT22;23741;49.446;8.754;2024-01-15T01:22:55;3.30;63.70
37910;DHT22;23741;49.446;8.754;2024-01-15T01:24:57;3.30;63.90
37910;DHT22;23741;49.446;8.754;2024-01-15T01:26:58;3.30;64.00
37910;DHT22;23741;49.446;8.754;2024-01-15T01:29:00;3.30;64.10
37910;DHT22;23741;49.446;8.754;2024-01-15T01:31:03;3.20;64.00
37910;DHT22;23741;49.446;8.754;2024-01-15T01:33:05;3.20;63.90
37910;DHT22;23741;49.446;8.754;2024-01-15T01:35:07;3.20;63.90
37910;DHT22;23741;49.446;8.754;2024-01-15T01:37:11;3.20;63.90
37910;DHT22;23741;49.446;8.754;2024-01-15T01:39:16;3.20;64.10
37910;DHT22;23741;49.446;8.754;2024-01-15T01:41:19;3.20;64.50
37910;DHT22;23741;49.446;8.754;2024-01-15T01:43:21;3.20;64.60
37910;DHT22;23741;49.446;8.754;2024-01-15T01:45:22;3.20;64.60
37910;DHT22;23741;49.446;8.754;2024-01-15T01:47:25;3.20;64.40
37910;DHT22;23741;49.446;8.754;2024-01-15T01:49:28;3.20;64.50
37910;DHT22;23741;49.446;8.754;2024-01-15T01:51:30;3.20;64.50
37910;DHT22;23741;49.446;8.754;2024-01-15T01:53:33;3.20;64.80
37910;DHT22;23741;49.446;8.754;2024-01-15T01:55:36;3.20;65.10
37910;DHT22;23741;49.446;8.754;2024-01-15T01:57:39;3.30;65.40
37910;DHT22;23741;49.446;8.754;2024-01-15T01:59:44;3.30;65.30
37910;DHT22;23741;49.446;8.754;2024-01-15T02:01:47;3.30;65.30
37910;DHT22;23741;49.446;8.754;2024-01-15T02:03:50;3.30;64.80
37910;DHT22;23741;49.446;8.754;2024-01-15T02:05:52;3.30;64.60
37910;DHT22;23741;49.446;8.754;2024-01-15T02:07:54;3.30;64.20
37910;DHT22;23741;49.446;8.754;2024-01-15T02:09:56;3.30;64.40
37910;DHT22;23741;49.446;8.754;2024-01-15T02:11:58;3.30;64.20
37910;DHT22;23741;49.446;8.754;2024-01-15T02:14:00;3.30;64.10
37910;DHT22;23741;49.446;8.754;2024-01-15T02:16:02;3.30;64.50
37910;DHT22;23741;49.446;8.754;2024-01-15T02:18:04;3.20;64.60
37910;DHT22;23741;49.446;8.754;2024-01-15T02:20:07;3.30;64.80
37910;DHT22;23741;49.446;8.754;2024-01-15T02:22:09;3.30;65.10
37910;DHT22;23741;49.446;8.754;2024-01-15T02:24:11;3.30;65.50
37910;DHT22;23741;49.446;8.754;2024-01-15T02:26:13;3.30;65.40
37910;DHT22;23741;49.446;8.754;2024-01-15T02:28:16;3.30;66.20
37910;DHT22;23741;49.446;8.754;2024-01-15T02:30:18;3.30;65.40
37910;DHT22;23741;49.446;8.754;2024-01-15T02:32:21;3.30;65.20
37910;DHT22;23741;49.446;8.754;2024-01-15T02:34:22;3.40;65.10
37910;DHT22;23741;49.446;8.754;2024-01-15T02:36:24;3.40;65.10
37910;DHT22;23741;49.446;8.754;2024-01-15T02:38:26;3.40;65.20
37910;DHT22;23741;49.446;8.754;2024-01-15T02:40:28;3.30;65.10
37910;DHT22;23741;49.446;8.754;2024-01-15T02:42:30;3.40;65.00
37910;DHT22;23741;49.446;8.754;2024-01-15T02:44:32;3.40;64.80
37910;DHT22;23741;49.446;8.754;2024-01-15T02:46:34;3.40;64.70
37910;DHT22;23741;49.446;8.754;2024-01-15T02:48:36;3.40;64.60
37910;DHT22;23741;49.446;8.754;2024-01-15T02:50:38;3.50;64.90
37910;DHT22;23741;49.446;8.754;2024-01-15T02:52:40;3.40;64.60
37910;DHT22;23741;49.446;8.754;2024-01-15T02:54:42;3.40;64.40
37910;DHT22;23741;49.446;8.754;2024-01-15T02:56:44;3.40;64.20
37910;DHT22;23741;49.446;8.754;2024-01-15T02:58:45;3.40;64.10
37910;DHT22;23741;49.446;8.754;2024-01-15T03:00:47;3.40;64.40
37910;DHT22;23741;49.446;8.754;2024-01-15T03:02:50;3.40;64.50
37910;DHT22;23741;49.446;8.754;2024-01-15T03:04:52;3.40;64.40
37910;DHT22;23741;49.446;8.754;2024-01-15T03:06:53;3.40;64.40
37910;DHT22;23741;49.446;8.754;2024-01-15T03:08:55;3.40;64.70
37910;DHT22;23741;49.446;8.754;2024-01-15T03:10:57;3.40;64.90
37910;DHT22;23741;49.446;8.754;2024-01-15T03:12:59;3.40;65.10
37910;DHT22;23741;49.446;8.754;2024-01-15T03:15:01;3.40;64.80
37910;DHT22;23741;49.446;8.754;2024-01-15T03:17:04;3.40;65.10
37910;DHT22;23741;49.446;8.754;2024-01-15T03:19:06;3.40;65.20
37910;DHT22;23741;49.446;8.754;2024-01-15T03:21:08;3.40;65.30
37910;DHT22;23741;49.446;8.754;2024-01-15T03:23:09;3.50;65.20
37910;DHT22;23741;49.446;8.754;2024-01-15T03:25:11;3.50;65.20
37910;DHT22;23741;49.446;8.754;2024-01-15T03:27:13;3.50;65.20
37910;DHT22;23741;49.446;8.754;2024-01-15T03:29:15;3.50;65.20
37910;DHT22;23741;49.446;8.754;2024-01-15T03:31:17;3.50;65.20
37910;DHT22;23741;49.446;8.754;2024-01-15T03:33:19;3.50;65.10
37910;DHT22;23741;49.446;8.754;2024-01-15T03:35:21;3.50;64.70
37910;DHT22;23741;49.446;8.754;2024-01-15T03:37:23;3.50;64.60
37910;DHT22;23741;49.446;8.754;2024-01-15T03:39:25;3.50;64.80
37910;DHT22;23741;49.446;8.754;2024-01-15T03:41:27;3.60;64.80
37910;DHT22;23741;49.446;8.754;2024-01-15T03:43:28;3.50;64.70
37910;DHT22;23741;49.446;8.754;2024-01-15T03:45:30;3.60;65.00
37910;DHT22;23741;49.446;8.754;2024-01-15T03:47:32;3.60;65.20
37910;DHT22;23741;49.446;8.754;2024-01-15T03:49:34;3.60;65.20
37910;DHT22;23741;49.446;8.754;2024-01-15T03:51:36;3.60;65.20
37910;DHT22;23741;49.446;8.754;2024-01-15T03:53:38;3.60;65.50
37910;DHT22;23741;49.446;8.754;2024-01-15T03:55:40;3.60;65.20
37910;DHT22;23741;49.446;8.754;2024-01-15T03:57:42;3.70;65.20
37910;DHT22;23741;49.446;8.754;2024-01-15T03:59:44;3.70;65.20
37910;DHT22;23741;49.446;8.754;2024-01-15T04:01:49;3.70;65.30
37910;DHT22;23741;49.446;8.754;2024-01-15T04:03:52;3.70;65.40
37910;DHT22;23741;49.446;8.754;2024-01-15T04:05:54;3.70;65.20
37910;DHT22;23741;49.446;8.754;2024-01-15T04:07:56;3.70;65.00
37910;DHT22;23741;49.446;8.754;2024-01-15T04:09:58;3.70;64.90
37910;DHT22;23741;49.446;8.754;2024-01-15T04:12:01;3.70;64.70
37910;DHT22;23741;49.446;8.754;2024-01-15T04:14:03;3.70;64.70
37910;DHT22;23741;49.446;8.754;2024-01-15T04:16:05;3.70;64.80
37910;DHT22;23741;49.446;8.754;2024-01-15T04:18:06;3.70;65.00
37910;DHT22;23741;49.446;8.754;2024-01-15T04:20:09;3.70;65.10
37910;DHT22;23741;49.446;8.754;2024-01-15T04:22:11;3.70;65.40
37910;DHT22;23741;49.446;8.754;2024-01-15T04:24:14;3.70;65.70
37910;DHT22;23741;49.446;8.754;2024-01-15T04:26:16;3.80;66.00
37910;DHT22;23741;49.446;8.754;2024-01-15T04:28:18;3.70;65.80
37910;DHT22;23741;49.446;8.754;2024-01-15T04:30:20;3.80;65.70
37910;DHT22;23741;49.446;8.754;2024-01-15T04:32:22;3.80;65.50
37910;DHT22;23741;49.446;8.754;2024-01-15T04:34:27;3.80;65.40
37910;DHT22;23741;49.446;8.754;2024-01-15T04:36:29;3.90;65.50
37910;DHT22;23741;49.446;8.754;2024-01-15T04:38:31;3.90;65.40
37910;DHT22;23741;49.446;8.754;2024-01-15T04:40:34;3.90;65.30
37910;DHT22;23741;49.446;8.754;2024-01-15T04:42:35;3.90;65.30
37910;DHT22;23741;49.446;8.754;2024-01-15T04:44:37;3.90;65.30
37910;DHT22;23741;49.446;8.754;2024-01-15T04:46:39;3.90;65.40
37910;DHT22;23741;49.446;8.754;2024-01-15T04:48:41;3.90;65.20
37910;DHT22;23741;49.446;8.754;2024-01-15T04:50:43;3.90;65.10
37910;DHT22;23741;49.446;8.754;2024-01-15T04:52:45;4.00;65.10
37910;DHT22;23741;49.446;8.754;2024-01-15T04:54:47;3.90;65.00
37910;DHT22;23741;49.446;8.754;2024-01-15T04:56:49;4.00;65.10
37910;DHT22;23741;49.446;8.754;2024-01-15T04:58:50;4.00;64.80
37910;DHT22;23741;49.446;8.754;2024-01-15T05:00:52;3.90;64.70
37910;DHT22;23741;49.446;8.754;2024-01-15T05:02:56;3.90;65.70
37910;DHT22;23741;49.446;8.754;2024-01-15T05:04:58;3.90;65.10
37910;DHT22;23741;49.446;8.754;2024-01-15T05:07:00;3.90;65.10
37910;DHT22;23741;49.446;8.754;2024-01-15T05:09:02;4.00;65.30
37910;DHT22;23741;49.446;8.754;2024-01-15T05:11:05;4.00;65.50
37910;DHT22;23741;49.446;8.754;2024-01-15T05:13:07;4.00;65.50
37910;DHT22;23741;49.446;8.754;2024-01-15T05:15:09;4.00;65.50
37910;DHT22;23741;49.446;8.754;2024-01-15T05:17:11;4.00;65.40
37910;DHT22;23741;49.446;8.754;2024-01-15T05:19:13;4.00;65.40
37910;DHT22;23741;49.446;8.754;2024-01-15T05:21:15;4.00;65.40
37910;DHT22;23741;49.446;8.754;2024-01-15T05:23:17;4.00;65.50
37910;DHT22;23741;49.446;8.754;2024-01-15T05:25:19;4.10;65.80
37910;DHT22;23741;49.446;8.754;2024-01-15T05:27:20;4.10;65.30
37910;DHT22;23741;49.446;8.754;2024-01-15T05:29:22;4.10;65.00
37910;DHT22;23741;49.446;8.754;2024-01-15T05:31:24;4.10;64.80
37910;DHT22;23741;49.446;8.754;2024-01-15T05:33:26;4.10;65.20
37910;DHT22;23741;49.446;8.754;2024-01-15T05:35:28;4.10;64.90
37910;DHT22;23741;49.446;8.754;2024-01-15T05:37:30;4.10;64.50
37910;DHT22;23741;49.446;8.754;2024-01-15T05:39:32;4.00;64.20
37910;DHT22;23741;49.446;8.754;2024-01-15T05:41:34;4.00;65.20
37910;DHT22;23741;49.446;8.754;2024-01-15T05:43:36;4.00;64.40
37910;DHT22;23741;49.446;8.754;2024-01-15T05:45:38;4.00;64.50
37910;DHT22;23741;49.446;8.754;2024-01-15T05:47:40;4.00;64.60
37910;DHT22;23741;49.446;8.754;2024-01-15T05:49:42;3.90;64.20
37910;DHT22;23741;49.446;8.754;2024-01-15T05:51:44;3.90;64.30
37910;DHT22;23741;49.446;8.754;2024-01-15T05:53:46;3.90;64.50
37910;DHT22;23741;49.446;8.754;2024-01-15T05:55:51;3.90;64.40
37910;DHT22;23741;49.446;8.754;2024-01-15T05:57:53;3.90;64.20
37910;DHT22;23741;49.446;8.754;2024-01-15T05:59:55;3.90;64.50
37910;DHT22;23741;49.446;8.754;2024-01-15T06:01:57;3.90;64.80
37910;DHT22;23741;49.446;8.754;2024-01-15T06:03:59;3.90;65.20
37910;DHT22;23741;49.446;8.754;2024-01-15T06:06:01;3.90;65.00
37910;DHT22;23741;49.446;8.754;2024-01-15T06:08:04;3.90;64.80
37910;DHT22;23741;49.446;8.754;2024-01-15T06:10:06;3.90;64.60
37910;DHT22;23741;49.446;8.754;2024-01-15T06:12:08;3.90;64.60
37910;DHT22;23741;49.446;8.754;2024-01-15T06:14:10;3.90;64.50
37910;DHT22;23741;49.446;8.754;2024-01-15T06:16:15;3.80;64.50
37910;DHT22;23741;49.446;8.754;2024-01-15T06:18:18;3.80;64.60
37910;DHT22;23741;49.446;8.754;2024-01-15T06:20:20;3.90;64.80
37910;DHT22;23741;49.446;8.754;2024-01-15T06:22:22;3.80;65.00
37910;DHT22;23741;49.446;8.754;2024-01-15T06:24:24;3.90;65.10
37910;DHT22;23741;49.446;8.754;2024-01-15T06:26:26;3.80;65.10
37910;DHT22;23741;49.446;8.754;2024-01-15T06:28:28;3.90;65.50
37910;DHT22;23741;49.446;8.754;2024-01-15T06:30:30;3.90;65.90
37910;DHT22;23741;49.446;8.754;2024-01-15T06:32:32;3.90;65.50
37910;DHT22;23741;49.446;8.754;2024-01-15T06:34:34;3.90;65.70
37910;DHT22;23741;49.446;8.754;2024-01-15T06:36:36;4.00;65.80
37910;DHT22;23741;49.446;8.754;2024-01-15T06:38:38;4.00;65.90
37910;DHT22;23741;49.446;8.754;2024-01-15T06:40:40;4.00;65.90
37910;DHT22;23741;49.446;8.754;2024-01-15T06:42:46;4.00;66.10
37910;DHT22;23741;49.446;8.754;2024-01-15T06:44:48;4.10;66.40
37910;DHT22;23741;49.446;8.754;2024-01-15T06:46:50;4.10;66.60
37910;DHT22;23741;49.446;8.754;2024-01-15T06:48:53;4.10;66.60
37910;DHT22;23741;49.446;8.754;2024-01-15T06:50:55;4.10;66.50
37910;DHT22;23741;49.446;8.754;2024-01-15T06:52:56;4.20;66.50
37910;DHT22;23741;49.446;8.754;2024-01-15T06:54:58;4.20;66.40
37910;DHT22;23741;49.446;8.754;2024-01-15T06:57:00;4.20;66.50
37910;DHT22;23741;49.446;8.754;2024-01-15T06:59:02;4.30;67.20
37910;DHT22;23741;49.446;8.754;2024-01-15T07:01:04;4.30;66.00
37910;DHT22;23741;49.446;8.754;2024-01-15T07:03:06;4.30;65.70
37910;DHT22;23741;49.446;8.754;2024-01-15T07:05:09;4.30;65.70
37910;DHT22;23741;49.446;8.754;2024-01-15T07:07:11;4.30;65.90
37910;DHT22;23741;49.446;8.754;2024-01-15T07:09:13;4.40;65.70
37910;DHT22;23741;49.446;8.754;2024-01-15T07:11:14;4.40;65.60
37910;DHT22;23741;49.446;8.754;2024-01-15T07:13:16;4.30;65.50
37910;DHT22;23741;49.446;8.754;2024-01-15T07:15:19;4.30;65.50
37910;DHT22;23741;49.446;8.754;2024-01-15T07:17:21;4.40;65.60
37910;DHT22;23741;49.446;8.754;2024-01-15T07:19:22;4.40;66.00
37910;DHT22;23741;49.446;8.754;2024-01-15T07:21:24;4.40;66.10
37910;DHT22;23741;49.446;8.754;2024-01-15T07:23:26;4.40;66.10
37910;DHT22;23741;49.446;8.754;2024-01-15T07:25:31;4.40;65.70
37910;DHT22;23741;49.446;8.754;2024-01-15T07:27:33;4.40;65.70
37910;DHT22;23741;49.446;8.754;2024-01-15T07:29:35;4.50;65.80
37910;DHT22;23741;49.446;8.754;2024-01-15T07:31:39;4.40;65.70
37910;DHT22;23741;49.446;8.754;2024-01-15T07:33:41;4.40;65.70
37910;DHT22;23741;49.446;8.754;2024-01-15T07:35:43;4.50;65.80
37910;DHT22;23741;49.446;8.754;2024-01-15T07:37:45;4.50;65.90
37910;DHT22;23741;49.446;8.754;2024-01-15T07:39:47;4.50;65.80
37910;DHT22;23741;49.446;8.754;2024-01-15T07:41:49;4.50;65.80
37910;DHT22;23741;49.446;8.754;2024-01-15T07:43:51;4.50;65.90
37910;DHT22;23741;49.446;8.754;2024-01-15T07:45:53;4.50;65.80
37910;DHT22;23741;49.446;8.754;2024-01-15T07:47:55;4.50;65.60
37910;DHT22;23741;49.446;8.754;2024-01-15T07:49:56;4.50;65.40
37910;DHT22;23741;49.446;8.754;2024-01-15T07:52:03;4.50;65.30
37910;DHT22;23741;49.446;8.754;2024-01-15T07:54:06;4.60;65.40
37910;DHT22;23741;49.446;8.754;2024-01-15T07:56:09;4.50;65.50
37910;DHT22;23741;49.446;8.754;2024-01-15T07:58:10;4.50;65.30
37910;DHT22;23741;49.446;8.754;2024-01-15T08:00:17;4.60;65.30
37910;DHT22;23741;49.446;8.754;2024-01-15T08:02:19;4.60;65.40
37910;DHT22;23741;49.446;8.754;2024-01-15T08:04:21;4.60;65.50
37910;DHT22;23741;49.446;8.754;2024-01-15T08:06:26;4.60;65.50
37910;DHT22;23741;49.446;8.754;2024-01-15T08:08:28;4.60;65.40
37910;DHT22;23741;49.446;8.754;2024-01-15T08:10:29;4.60;65.70
37910;DHT22;23741;49.446;8.754;2024-01-15T08:12:31;4.60;65.70
37910;DHT22;23741;49.446;8.754;2024-01-15T08:14:33;4.50;65.50
37910;DHT22;23741;49.446;8.754;2024-01-15T08:16:38;4.60;65.70
37910;DHT22;23741;49.446;8.754;2024-01-15T08:18:41;4.60;65.80
37910;DHT22;23741;49.446;8.754;2024-01-15T08:20:43;4.70;65.60
37910;DHT22;23741;49.446;8.754;2024-01-15T08:22:45;4.60;65.50
37910;DHT22;23741;49.446;8.754;2024-01-15T08:24:48;4.60;65.40
37910;DHT22;23741;49.446;8.754;2024-01-15T08:26:50;4.60;65.40
37910;DHT22;23741;49.446;8.754;2024-01-15T08:28:52;4.60;65.30
37910;DHT22;23741;49.446;8.754;2024-01-15T08:30:53;4.60;65.40
37910;DHT22;23741;49.446;8.754;2024-01-15T08:32:56;4.70;65.70
37910;DHT22;23741;49.446;8.754;2024-01-15T08:35:08;4.70;65.50
37910;DHT22;23741;49.446;8.754;2024-01-15T08:37:11;4.70;65.30
37910;DHT22;23741;49.446;8.754;2024-01-15T08:39:13;4.70;65.30
37910;DHT22;23741;49.446;8.754;2024-01-15T08:41:15;4.70;65.30
37910;DHT22;23741;49.446;8.754;2024-01-15T08:43:16;4.70;65.00
37910;DHT22;23741;49.446;8.754;2024-01-15T08:45:18;4.60;64.90
37910;DHT22;23741;49.446;8.754;2024-01-15T08:47:21;4.60;65.10
37910;DHT22;23741;49.446;8.754;2024-01-15T08:49:23;4.60;65.30
37910;DHT22;23741;49.446;8.754;2024-01-15T08:51:25;4.60;65.40
37910;DHT22;23741;49.446;8.754;2024-01-15T08:53:30;4.60;65.80
37910;DHT22;23741;49.446;8.754;2024-01-15T08:55:32;4.60;65.80
37910;DHT22;23741;49.446;8.754;2024-01-15T08:57:34;4.70;65.90
37910;DHT22;23741;49.446;8.754;2024-01-15T08:59:36;4.70;66.10
37910;DHT22;23741;49.446;8.754;2024-01-15T09:01:38;4.70;66.00
37910;DHT22;23741;49.446;8.754;2024-01-15T09:03:41;4.70;66.00
37910;DHT22;23741;49.446;8.754;2024-01-15T09:05:44;4.70;65.70
37910;DHT22;23741;49.446;8.754;2024-01-15T09:07:46;4.70;65.70
37910;DHT22;23741;49.446;8.754;2024-01-15T09:09:48;4.70;66.10
37910;DHT22;23741;49.446;8.754;2024-01-15T09:11:51;4.70;66.10
37910;DHT22;23741;49.446;8.754;2024-01-15T09:13:53;4.80;66.10
37910;DHT22;23741;49.446;8.754;2024-01-15T09:15:55;4.80;66.00
37910;DHT22;23741;49.446;8.754;2024-01-15T09:17:57;4.80;66.00
37910;DHT22;23741;49.446;8.754;2024-01-15T09:20:00;4.80;66.00
37910;DHT22;23741;49.446;8.754;2024-01-15T09:22:03;4.80;66.00
37910;DHT22;23741;49.446;8.754;2024-01-15T09:24:05;4.80;66.10
37910;DHT22;23741;49.446;8.754;2024-01-15T09:26:08;4.80;66.10
37910;DHT22;23741;49.446;8.754;2024-01-15T09:28:10;4.80;65.80
37910;DHT22;23741;49.446;8.754;2024-01-15T09:30:12;4.80;65.60
37910;DHT22;23741;49.446;8.754;2024-01-15T09:32:15;4.80;66.00
37910;DHT22;23741;49.446;8.754;2024-01-15T09:34:19;4.80;66.00
37910;DHT22;23741;49.446;8.754;2024-01-15T09:36:21;4.80;66.00
37910;DHT22;23741;49.446;8.754;2024-01-15T09:38:24;4.80;66.20
37910;DHT22;23741;49.446;8.754;2024-01-15T09:40:27;4.80;66.40
37910;DHT22;23741;49.446;8.754;2024-01-15T09:42:33;4.80;66.10
37910;DHT22;23741;49.446;8.754;2024-01-15T09:44:36;4.80;66.00
37910;DHT22;23741;49.446;8.754;2024-01-15T09:46:38;4.90;66.20
37910;DHT22;23741;49.446;8.754;2024-01-15T09:48:40;4.90;66.40
37910;DHT22;23741;49.446;8.754;2024-01-15T09:50:43;4.90;66.70
37910;DHT22;23741;49.446;8.754;2024-01-15T09:52:45;4.90;66.50
37910;DHT22;23741;49.446;8.754;2024-01-15T09:54:47;4.90;66.20
37910;DHT22;23741;49.446;8.754;2024-01-15T09:56:50;4.90;66.30
37910;DHT22;23741;49.446;8.754;2024-01-15T09:58:52;4.90;66.40
37910;DHT22;23741;49.446;8.754;2024-01-15T10:00:54;4.90;66.50
37910;DHT22;23741;49.446;8.754;2024-01-15T10:02:56;4.90;66.70
37910;DHT22;23741;49.446;8.754;2024-01-15T10:04:58;4.90;66.80
37910;DHT22;23741;49.446;8.754;2024-01-15T10:07:00;5.00;66.50
37910;DHT22;23741;49.446;8.754;2024-01-15T10:09:02;5.00;66.60
37910;DHT22;23741;49.446;8.754;2024-01-15T10:11:05;5.00;66.80
37910;DHT22;23741;49.446;8.754;2024-01-15T10:13:07;5.00;66.80
37910;DHT22;23741;49.446;8.754;2024-01-15T10:15:10;5.00;66.50
37910;DHT22;23741;49.446;8.754;2024-01-15T10:17:13;5.00;66.60
37910;DHT22;23741;49.446;8.754;2024-01-15T10:19:19;5.00;66.70
37910;DHT22;23741;49.446;8.754;2024-01-15T10:21:21;5.00;66.70
37910;DHT22;23741;49.446;8.754;2024-01-15T10:23:23;5.00;66.80
37910;DHT22;23741;49.446;8.754;2024-01-15T10:25:25;5.00;66.70
37910;DHT22;23741;49.446;8.754;2024-01-15T10:27:27;5.00;66.80
37910;DHT22;23741;49.446;8.754;2024-01-15T10:29:29;5.00;66.90
37910;DHT22;23741;49.446;8.754;2024-01-15T10:31:31;5.00;66.60
37910;DHT22;23741;49.446;8.754;2024-01-15T10:33:33;5.00;66.70
37910;DHT22;23741;49.446;8.754;2024-01-15T10:35:35;5.00;66.40
37910;DHT22;23741;49.446;8.754;2024-01-15T10:37:37;5.00;66.80
37910;DHT22;23741;49.446;8.754;2024-01-15T10:39:39;5.00;67.10
37910;DHT22;23741;49.446;8.754;2024-01-15T10:41:41;5.00;67.50
37910;DHT22;23741;49.446;8.754;2024-01-15T10:43:43;5.10;67.30
37910;DHT22;23741;49.446;8.754;2024-01-15T10:45:47;5.10;67.40
37910;DHT22;23741;49.446;8.754;2024-01-15T10:47:49;5.10;67.10
37910;DHT22;23741;49.446;8.754;2024-01-15T10:49:51;5.10;66.80
37910;DHT22;23741;49.446;8.754;2024-01-15T10:51:54;5.10;66.90
37910;DHT22;23741;49.446;8.754;2024-01-15T10:53:57;5.10;66.70
37910;DHT22;23741;49.446;8.754;2024-01-15T10:56:01;5.10;66.50
37910;DHT22;23741;49.446;8.754;2024-01-15T10:58:03;5.10;66.20
37910;DHT22;23741;49.446;8.754;2024-01-15T11:00:09;5.00;66.00
37910;DHT22;23741;49.446;8.754;2024-01-15T11:02:13;5.00;66.00
37910;DHT22;23741;49.446;8.754;2024-01-15T11:04:15;5.00;66.10
37910;DHT22;23741;49.446;8.754;2024-01-15T11:06:19;5.00;66.10
37910;DHT22;23741;49.446;8.754;2024-01-15T11:08:24;5.00;66.50
37910;DHT22;23741;49.446;8.754;2024-01-15T11:12:41;4.90;67.10
37910;DHT22;23741;49.446;8.754;2024-01-15T11:14:47;5.00;67.40
37910;DHT22;23741;49.446;8.754;2024-01-15T11:16:55;5.00;67.00
37910;DHT22;23741;49.446;8.754;2024-01-15T11:23:41;5.00;66.90
37910;DHT22;23741;49.446;8.754;2024-01-15T11:25:41;5.00;67.10
37910;DHT22;23741;49.446;8.754;2024-01-15T11:27:47;5.00;67.50
37910;DHT22;23741;49.446;8.754;2024-01-15T11:30:02;5.00;67.60
37910;DHT22;23741;49.446;8.754;2024-01-15T11:32:05;5.00;67.50
37910;DHT22;23741;49.446;8.754;2024-01-15T11:34:08;5.00;67.30
37910;DHT22;23741;49.446;8.754;2024-01-15T11:36:11;5.00;66.80
37910;DHT22;23741;49.446;8.754;2024-01-15T11:38:18;5.00;66.90
37910;DHT22;23741;49.446;8.754;2024-01-15T11:42:36;5.00;67.20
37910;DHT22;23741;49.446;8.754;2024-01-15T11:44:38;5.00;67.40
37910;DHT22;23741;49.446;8.754;2024-01-15T11:46:40;5.00;67.50
37910;DHT22;23741;49.446;8.754;2024-01-15T11:48:47;5.00;67.40
37910;DHT22;23741;49.446;8.754;2024-01-15T11:50:52;5.00;66.80
37910;DHT22;23741;49.446;8.754;2024-01-15T11:53:01;5.00;66.90
37910;DHT22;23741;49.446;8.754;2024-01-15T11:55:11;5.00;66.60
37910;DHT22;23741;49.446;8.754;2024-01-15T11:57:18;5.00;66.70
37910;DHT22;23741;49.446;8.754;2024-01-15T11:59:23;5.00;67.10
37910;DHT22;23741;49.446;8.754;2024-01-15T12:01:25;5.00;67.70
37910;DHT22;23741;49.446;8.754;2024-01-15T12:03:27;5.10;67.90
37910;DHT22;23741;49.446;8.754;2024-01-15T12:05:29;5.00;68.00
37910;DHT22;23741;49.446;8.754;2024-01-15T12:07:31;5.10;68.00
37910;DHT22;23741;49.446;8.754;2024-01-15T12:09:33;5.10;67.50
37910;DHT22;23741;49.446;8.754;2024-01-15T12:11:35;5.10;67.70
37910;DHT22;23741;49.446;8.754;2024-01-15T12:13:38;5.10;67.70
37910;DHT22;23741;49.446;8.754;2024-01-15T12:15:40;5.10;67.40
37910;DHT22;23741;49.446;8.754;2024-01-15T12:17:43;5.10;67.70
37910;DHT22;23741;49.446;8.754;2024-01-15T12:19:45;5.10;67.90
37910;DHT22;23741;49.446;8.754;2024-01-15T12:21:47;5.20;68.20
37910;DHT22;23741;49.446;8.754;2024-01-15T12:23:49;5.20;68.80
37910;DHT22;23741;49.446;8.754;2024-01-15T12:25:54;5.20;68.90
37910;DHT22;23741;49.446;8.754;2024-01-15T12:27:56;5.20;69.10
37910;DHT22;23741;49.446;8.754;2024-01-15T12:29:58;5.30;68.70
37910;DHT22;23741;49.446;8.754;2024-01-15T12:32:00;5.30;68.40
37910;DHT22;23741;49.446;8.754;2024-01-15T12:34:02;5.30;68.40
37910;DHT22;23741;49.446;8.754;2024-01-15T12:36:04;5.30;68.40
37910;DHT22;23741;49.446;8.754;2024-01-15T12:38:06;5.40;68.30
37910;DHT22;23741;49.446;8.754;2024-01-15T12:40:08;5.40;68.30
37910;DHT22;23741;49.446;8.754;2024-01-15T12:42:14;5.40;68.10
37910;DHT22;23741;49.446;8.754;2024-01-15T12:44:15;5.40;68.10
37910;DHT22;23741;49.446;8.754;2024-01-15T12:46:18;5.40;68.10
37910;DHT22;23741;49.446;8.754;2024-01-15T12:48:20;5.50;68.40
37910;DHT22;23741;49.446;8.754;2024-01-15T12:50:23;5.40;68.30
37910;DHT22;23741;49.446;8.754;2024-01-15T12:52:29;5.50;68.30
37910;DHT22;23741;49.446;8.754;2024-01-15T12:54:32;5.50;68.50
37910;DHT22;23741;49.446;8.754;2024-01-15T12:56:34;5.50;68.70
37910;DHT22;23741;49.446;8.754;2024-01-15T12:58:35;5.50;68.90
37910;DHT22;23741;49.446;8.754;2024-01-15T13:00:37;5.50;68.20
37910;DHT22;23741;49.446;8.754;2024-01-15T13:02:39;5.50;68.10
37910;DHT22;23741;49.446;8.754;2024-01-15T13:04:45;5.50;68.00
37910;DHT22;23741;49.446;8.754;2024-01-15T13:06:48;5.50;68.20
37910;DHT22;23741;49.446;8.754;2024-01-15T13:08:51;5.50;68.10
37910;DHT22;23741;49.446;8.754;2024-01-15T13:10:52;5.60;68.30
37910;DHT22;23741;49.446;8.754;2024-01-15T13:12:57;5.60;68.20
37910;DHT22;23741;49.446;8.754;2024-01-15T13:14:59;5.60;68.40